Share

Clinton, OK

11:29 AM CDT die 24o April, anno 2014 (GMT -0500)
Clinton Municipal (KCLK) Elev 1614 ft | 35.54 °N, 98.93 °W | Change Station
Active Advisory: Wind Advisory

Current weather conditions updated 14 minutes ago

Clear
Serena
68 °F
Feels Like 68 °F
N
25
Ventus Variabilis Ventus from Magis Aquilo quam Zephyrus
Gusts 33 mph
Solis Ortus 6:51 AM
Solis Occasus 8:16 PM
Moon Waning Crescent

Today is forecast to be Much Cooler than yesterday.

Pressio 29.85 in
Visibilitas 10.0 milia passuum
Clouds Serena
Frigus in quo Ros apparet 32 °F
Umor 26%
Rainfall 0.00 in
Snow Depth Not available.
UV 8 out of 16
Pollen 8.60 out of 12
Air Quality Not available.
Flu Activity Regional
METAR KCLK 241615Z AUTO 33022G29KT 10SM CLR 20/00 A2985 RMK AO2

More Conditions Fewer Conditions

Pressio 29.85 in
Visibilitas 10.0 milia passuum
Clouds Serena
Frigus in quo Ros apparet 32 °F
Umor 26%
Rainfall 0.00 in
Snow Depth Not available.
UV 8 out of 16
Pollen 8.60 out of 12
Air Quality Not available.
Flu Activity Regional
METAR KCLK 241615Z AUTO 33022G29KT 10SM CLR 20/00 A2985 RMK AO2

More Conditions Fewer Conditions

10-Day Weather Forecast

Almanac

Astronomy

Apr. 24, 2014 Rise Set
Actual Time 6:51 AM CDT 8:16 PM CDT
Civil Twilight 6:25 AM CDT 8:43 PM CDT
Nautical Twilight 5:53 AM CDT 9:15 PM CDT
Astronomical Twilight 5:19 AM CDT 9:49 PM CDT
Moon 3:53 AM CDT 3:43 PM CDT
Length Of Visible Light 14h 18m
Length of Day
13h 24m
Tomorrow will be 2m 0s longer.
Waning Crescent, 24% of the Moon is Illuminated
Hodie
Waning Crescent
Apr 29
New
May 6
First Quarter
May 14
Full
May 21
Last Quarter

Today's Extremes

State Highs State Lows

Community

  • Sunset at Apalachicola Bay, Florida
    Sunset at Apalachicola Bay, Florida
  • Clouds mov'n in
    Clouds mov'n in
  • Stacked
    Stacked
  • clouds approaching Red Sox Nation
    clouds approaching Red Sox Nation
  • Balance
    Balance

WunderPhotos

Upload Photos

1,704,657 photos uploaded!

Nearby

Snow Depth

Station Depth Elevation
No new snow has been reported.

Coastal Water Temperatures

Locus Calor
No Stations Reporting

Earthquake Activity

City Distance Mag. Time & Date
Stillwater, Oklahoma 111 milia passuum 2.8 5:30 PM CDT
2014-04-19
Enid, Oklahoma 95 milia passuum 2.9 1:11 PM CDT
2014-04-19
Perry, Oklahoma 106 milia passuum 4.0 5:43 AM CDT
2014-04-19
Stillwater, Oklahoma 111 milia passuum 2.7 3:40 AM CDT
2014-04-19
Minimum magnitude displayed is 2.5.

Nearby Weather Stations

Station Location Temp Frigus in quo Ros apparet Umor Ventus Precip. Elev Renovata Type
Custer City, Custer City, OK 68.5 °F 42 °F 38% Magis Aquilo quam Zephyrus  -  12.0 mph 0.00 in / hr 1775 ft 11:29 AM CDT Rapid Fire

Show More Stations Show Fewer Stations

What do you think?

We're not finished. Please let us know what you like, what you don't like, and what you are still missing.